CheckWX is a tool to help pilots better visualize weather data.  It is not intended as a substitute for an official pre-flight weather briefing.

06:40:14 UTC

LIPQ METAR
Trieste–Friuli Venezia Giulia Airport
Trieste, Italy
Current

20 mins ago

LIPQ 270620Z 11006KT CAVOK M00/M02 Q1009
Observed
Feb-27 @ 06:20 UTC
Wind
  • 110° at 6 KTS
Visibility
10,000+ meters
Flight Rules
VFR
Cloud Levels
  • Clear skies
Temperature
C / 32°F
Dewpoint
-2°C / 28°F
Humidity
87%
Altimeter
29.79" Hg
Pressure
1008.92 hPa
Previous

50 mins ago

LIPQ 270550Z 11004KT CAVOK 01/M01 Q1009
Observed
Feb-27 @ 05:50 UTC
Wind
  • 110° at 4 KTS
Visibility
10,000+ meters
Flight Rules
VFR
Cloud Levels
  • Clear skies
Temperature
C / 34°F
Dewpoint
-1°C / 30°F
Humidity
87%
Altimeter
29.79" Hg
Pressure
1008.92 hPa
Previous

1 hour ago

LIPQ 270520Z VRB02KT CAVOK 01/01 Q1009
Observed
Feb-27 @ 05:20 UTC
Wind
  • Variable at 2 KTS
Visibility
10,000+ meters
Flight Rules
VFR
Cloud Levels
  • Clear skies
Temperature
C / 34°F
Dewpoint
C / 34°F
Humidity
100%
Altimeter
29.79" Hg
Pressure
1008.92 hPa